KCBE/CBE METAR and TAF weather

Enter ICAO airport designator
Station Type Date Time Source
KCBE METAR 2019/06/24 23:20 UTC NOAA

KCBE 242320Z AUTO 00000KT 10SM SCT020 SCT027 26/23 A2983 RMK AO2 T02600231


Station Type Date Time Source
KCBE Decoded METAR 2019/06/24 23:20 UTC NOAA

Cumberland, Greater Cumberland Regional Airport, MD, United States (KCBE) 39-36-55N 078-45-39W
Jun 24, 2019 - 07:20 PM EDT / 2019.06.24 2320 UTC
Wind: Calm:0
Visibility: 10 mile(s):0
Sky conditions: partly cloudy
Temperature: 78.8 F (26.0 C)
Dew Point: 73.6 F (23.1 C)
Relative Humidity: 84%
Pressure (altimeter): 29.83 in. Hg (1010 hPa)
ob: KCBE 242320Z AUTO 00000KT 10SM SCT020 SCT027 26/23 A2983 RMK AO2 T02600231
cycle: 23

Station Type Date Time Source
KCBE TAF UTC NOAA

Error!

Example: see airport list